Time;durP1;ratioP1;P1;durP2;ratioP2;P2;SDS_P1;SDS_P2;PMS_P1;PMS_P2;Temp;Humidity;BMP_temperature;BMP_pressure;BME280_temperature;BME280_humidity;BME280_pressure;Samples;Min_cycle;Max_cycle;Signal;HPM_P1;HPM_P2
2022/06/07 00:01:16;;;;;;;;;1.00;1.00;;;;;20.42;51.43;101311.34;5071708;28;45492;-68
2022/06/07 00:03:42;;;;;;;;;1.50;1.50;;;;;20.39;51.39;101307.13;5070362;28;45363;-65
2022/06/07 00:06:08;;;;;;;;;1.00;1.00;;;;;20.39;51.67;101303.59;5072246;28;45521;-64
2022/06/07 00:08:34;;;;;;;;;1.50;1.50;;;;;20.35;51.45;101300.34;5071625;28;45423;-67
2022/06/07 00:11:00;;;;;;;;;0.50;0.50;;;;;20.32;51.26;101297.97;5069193;28;46368;-66
2022/06/07 00:13:26;;;;;;;;;2.00;1.25;;;;;20.29;51.86;101301.75;5069369;28;45448;-66
2022/06/07 00:15:52;;;;;;;;;2.75;2.00;;;;;20.26;51.62;101295.84;5071581;28;45421;-67
2022/06/07 00:18:18;;;;;;;;;0.50;0.00;;;;;20.20;51.91;101293.72;5068736;28;45279;-65
2022/06/07 00:20:45;;;;;;;;;1.00;1.00;;;;;20.20;51.52;101299.06;5069588;27;46600;-67
2022/06/07 00:23:14;;;;;;;;;2.75;1.00;;;;;20.18;51.73;101293.88;5068712;27;45314;-67
2022/06/07 00:25:41;;;;;;;;;2.00;1.00;;;;;20.17;52.35;101294.84;5065330;28;45333;-64
2022/06/07 00:28:07;;;;;;;;;0.50;0.50;;;;;20.16;52.38;101292.31;5070139;28;45318;-62
2022/06/07 00:30:34;;;;;;;;;2.00;2.00;;;;;20.11;52.10;101287.38;5072925;28;46216;-64
2022/06/07 00:33:00;;;;;;;;;1.00;1.00;;;;;20.10;52.40;101288.38;5070308;28;45432;-65
2022/06/07 00:35:26;;;;;;;;;1.50;1.00;;;;;20.07;52.20;101286.81;5069247;28;45493;-64
2022/06/07 00:37:51;;;;;;;;;2.00;1.00;;;;;20.05;52.08;101290.59;5070229;28;45219;-66
2022/06/07 00:40:17;;;;;;;;;1.75;1.25;;;;;19.99;52.55;101284.00;5073219;27;45410;-67
2022/06/07 00:42:43;;;;;;;;;0.75;0.50;;;;;19.96;52.75;101276.22;5070589;28;45614;-66
2022/06/07 00:45:14;;;;;;;;;1.75;1.00;;;;;19.94;52.53;101269.34;5069948;28;45566;-67
2022/06/07 00:47:41;;;;;;;;;1.75;1.75;;;;;19.94;52.91;101258.66;5066761;28;45419;-67
2022/06/07 00:50:11;;;;;;;;;1.00;1.00;;;;;19.94;52.89;101261.31;5070875;28;46142;-65
2022/06/07 00:52:36;;;;;;;;;1.00;1.00;;;;;19.93;52.79;101254.28;5070259;28;45672;-65
2022/06/07 00:55:05;;;;;;;;;2.00;1.00;;;;;19.93;53.41;101251.63;5070203;27;45660;-67
2022/06/07 00:57:31;;;;;;;;;2.75;1.00;;;;;19.93;53.31;101241.75;5069438;28;45409;-64
2022/06/07 00:59:57;;;;;;;;;1.00;0.00;;;;;19.96;53.17;101243.31;5071837;28;45776;-64
2022/06/07 01:02:23;;;;;;;;;1.25;1.00;;;;;19.99;53.27;101240.38;5069408;28;46316;-67
2022/06/07 01:04:49;;;;;;;;;1.00;1.00;;;;;19.98;53.48;101244.84;5068879;28;45427;-64
2022/06/07 01:12:43;;;;;;;;;2.00;1.00;;;;;19.99;53.78;101238.53;5068325;28;46440;-65
2022/06/07 01:15:09;;;;;;;;;1.25;1.25;;;;;20.00;53.84;101240.22;5069100;28;45343;-64
2022/06/07 01:17:35;;;;;;;;;1.00;1.00;;;;;19.97;53.76;101240.47;5071335;28;45565;-66
2022/06/07 01:20:01;;;;;;;;;1.00;1.00;;;;;19.96;54.12;101240.63;5072119;27;46123;-67
2022/06/07 01:22:27;;;;;;;;;1.00;1.00;;;;;19.94;54.36;101242.59;5069871;28;45449;-65
2022/06/07 01:24:53;;;;;;;;;2.00;2.00;;;;;19.93;54.55;101238.25;5069535;28;45448;-66
2022/06/07 01:27:20;;;;;;;;;1.00;1.00;;;;;19.92;54.15;101232.06;5067892;28;45359;-62
2022/06/07 01:29:45;;;;;;;;;2.50;1.00;;;;;19.89;54.44;101229.63;5071114;28;45341;-63
2022/06/07 01:32:12;;;;;;;;;0.00;0.00;;;;;19.87;54.38;101226.25;5070469;28;45227;-62
2022/06/07 01:34:41;;;;;;;;;2.00;0.75;;;;;19.88;54.96;101230.63;5069479;28;45371;-63
2022/06/07 01:37:08;;;;;;;;;2.00;1.75;;;;;19.87;54.73;101231.63;5062316;28;45511;-63
2022/06/07 01:42:18;;;;;;;;;1.00;1.00;;;;;19.89;55.04;101223.44;5070703;28;45501;-63
2022/06/07 01:44:48;;;;;;;;;2.25;1.00;;;;;19.89;54.75;101223.44;5078588;28;45299;-63
2022/06/07 01:47:21;;;;;;;;;1.00;1.00;;;;;19.88;55.09;101229.78;5064183;28;45315;-66
2022/06/07 01:49:47;;;;;;;;;1.00;1.00;;;;;19.88;54.96;101229.78;5063631;28;45510;-66
2022/06/07 01:52:15;;;;;;;;;1.00;1.00;;;;;19.85;54.99;101222.91;5064155;28;45302;-66
2022/06/07 01:54:41;;;;;;;;;1.00;1.00;;;;;19.82;55.27;101227.66;5063899;28;45298;-66
2022/06/07 01:57:07;;;;;;;;;1.50;1.50;;;;;19.81;55.21;101229.50;5063956;28;45537;-66
2022/06/07 01:59:33;;;;;;;;;3.25;2.00;;;;;19.83;55.41;101226.66;5067305;28;45307;-66
2022/06/07 02:02:00;;;;;;;;;0.50;0.50;;;;;19.83;55.12;101221.31;5063198;28;45488;-66
2022/06/07 02:04:26;;;;;;;;;1.00;1.00;;;;;19.81;55.82;101224.13;5063616;28;45303;-66
2022/06/07 02:06:51;;;;;;;;;2.00;2.00;;;;;19.81;55.49;101213.44;5064079;28;45394;-66
2022/06/07 02:09:17;;;;;;;;;2.00;0.75;;;;;19.81;55.66;101216.13;5063591;28;45613;-66
2022/06/07 02:11:43;;;;;;;;;2.00;1.75;;;;;19.83;55.87;101215.97;5063612;28;45211;-67
2022/06/07 02:14:09;;;;;;;;;3.00;3.00;;;;;19.85;55.65;101211.34;5063788;28;45491;-66
2022/06/07 02:16:35;;;;;;;;;1.00;1.00;;;;;19.84;55.53;101204.31;5063791;28;45211;-66
2022/06/07 02:19:01;;;;;;;;;3.75;2.00;;;;;19.84;55.94;101209.66;5063215;28;46144;-66
2022/06/07 02:21:26;;;;;;;;;2.00;2.00;;;;;19.83;56.15;101200.81;5062236;28;45369;-66
2022/06/07 02:23:52;;;;;;;;;1.25;1.25;;;;;19.82;55.70;101196.41;5063688;28;45376;-66
2022/06/07 02:26:21;;;;;;;;;2.00;2.00;;;;;19.83;56.13;101197.25;5063778;28;45385;-66
2022/06/07 02:28:52;;;;;;;;;3.00;2.00;;;;;19.84;56.30;101188.28;5063244;28;46091;-66
2022/06/07 02:31:20;;;;;;;;;2.00;2.00;;;;;19.82;56.40;101191.06;5063130;28;45426;-66
2022/06/07 02:33:46;;;;;;;;;2.00;2.00;;;;;19.82;55.92;101180.38;5063485;28;45359;-66
2022/06/07 02:36:13;;;;;;;;;2.50;2.50;;;;;19.82;56.60;101188.41;5063487;28;45526;-66
2022/06/07 02:38:40;;;;;;;;;2.00;2.00;;;;;19.84;56.64;101178.44;5063128;28;46352;-66
2022/06/07 02:41:09;;;;;;;;;2.75;1.25;;;;;19.84;56.05;101177.59;5063072;28;45224;-66
2022/06/07 02:43:34;;;;;;;;;1.50;1.50;;;;;19.83;56.69;101176.75;5063246;28;45244;-66
2022/06/07 02:45:59;;;;;;;;;1.75;1.50;;;;;19.82;56.63;101175.03;5063125;28;45335;-65
2022/06/07 02:48:25;;;;;;;;;2.25;2.00;;;;;19.84;56.31;101172.25;5061711;28;47793;-66
2022/06/07 02:50:52;;;;;;;;;1.25;1.25;;;;;19.84;56.67;101165.06;5062743;28;45298;-66
2022/06/07 02:53:19;;;;;;;;;1.75;1.00;;;;;19.84;56.74;101173.09;5062886;28;45304;-66
2022/06/07 02:55:44;;;;;;;;;2.25;2.00;;;;;19.84;56.62;101166.91;5063217;28;45311;-66
2022/06/07 02:58:09;;;;;;;;;1.00;1.00;;;;;19.84;56.41;101158.88;5062827;28;45310;-66
2022/06/07 03:00:35;;;;;;;;;1.75;1.75;;;;;19.86;56.57;101162.25;5065807;28;45221;-66
2022/06/07 03:03:00;;;;;;;;;1.00;1.00;;;;;19.84;56.98;101161.56;5062393;28;45338;-66
2022/06/07 03:05:26;;;;;;;;;2.00;2.00;;;;;19.82;56.97;101159.00;5061779;28;45332;-66
2022/06/07 03:07:51;;;;;;;;;3.50;2.75;;;;;19.82;56.92;101156.31;5062750;28;45402;-66
2022/06/07 03:10:18;;;;;;;;;3.50;2.00;;;;;19.81;56.86;101159.97;5062740;28;45290;-67
2022/06/07 03:12:44;;;;;;;;;3.25;1.00;;;;;19.84;56.83;101153.53;5062753;28;45409;-67
2022/06/07 03:15:11;;;;;;;;;3.00;3.00;;;;;19.87;57.12;101158.59;5062867;28;45616;-67
2022/06/07 03:17:37;;;;;;;;;4.00;1.75;;;;;19.88;56.85;101155.75;5062315;28;45169;-66
2022/06/07 03:20:08;;;;;;;;;1.25;1.25;;;;;19.89;56.82;101156.59;5062573;28;45485;-66
2022/06/07 03:22:34;;;;;;;;;1.00;1.00;;;;;19.86;56.88;101155.06;5062537;28;45401;-66
2022/06/07 03:25:05;;;;;;;;;2.00;2.00;;;;;19.87;57.04;101156.75;5061166;28;45589;-66
2022/06/07 03:27:35;;;;;;;;;2.00;2.00;;;;;19.87;57.12;101155.91;5062446;28;45340;-66
2022/06/07 03:30:08;;;;;;;;;2.25;2.25;;;;;19.88;57.04;101157.59;5062288;28;45272;-67
2022/06/07 03:32:35;;;;;;;;;2.00;2.00;;;;;19.89;57.36;101156.59;5062153;28;45356;-67
2022/06/07 03:35:01;;;;;;;;;2.00;2.00;;;;;19.89;57.07;101154.78;5062467;28;45418;-66
2022/06/07 03:37:26;;;;;;;;;3.00;1.25;;;;;19.88;57.54;101154.91;5062322;28;45358;-66
2022/06/07 03:39:52;;;;;;;;;1.25;1.25;;;;;19.88;57.40;101158.44;5062248;28;45180;-66
2022/06/07 03:42:18;;;;;;;;;1.25;1.25;;;;;19.88;57.38;101152.25;5062337;28;45487;-64
2022/06/07 03:44:48;;;;;;;;;2.00;1.75;;;;;19.87;57.67;101155.91;5062347;28;45296;-63
2022/06/07 03:47:18;;;;;;;;;2.00;2.00;;;;;19.88;57.14;101154.91;5062128;28;45373;-63
2022/06/07 03:49:46;;;;;;;;;4.00;3.00;;;;;19.88;57.43;101161.09;5062055;28;45299;-64
2022/06/07 03:52:12;;;;;;;;;2.50;2.50;;;;;19.87;57.78;101158.59;5062102;28;45417;-66
2022/06/07 03:54:38;;;;;;;;;3.00;3.00;;;;;19.89;57.54;101159.28;5062117;28;45524;-67
2022/06/07 03:57:05;;;;;;;;;2.00;2.00;;;;;19.88;57.64;101154.91;5061969;28;45349;-66
2022/06/07 03:59:30;;;;;;;;;3.00;3.00;;;;;19.87;57.74;101156.75;5065385;28;45418;-66
2022/06/07 04:01:56;;;;;;;;;5.00;4.50;;;;;19.85;57.95;101164.06;5061644;28;45410;-66
2022/06/07 04:04:22;;;;;;;;;3.00;2.00;;;;;19.84;57.61;101158.88;5060879;28;45500;-66
2022/06/07 04:09:39;;;;;;;;;3.00;3.00;;;;;19.83;58.17;101151.81;5061841;28;45208;-66
2022/06/07 04:12:10;;;;;;;;;3.00;3.00;;;;;19.82;57.95;101156.31;5061639;28;45318;-66
2022/06/07 04:14:40;;;;;;;;;2.25;2.25;;;;;19.80;58.06;101153.78;5061753;28;45378;-66
2022/06/07 04:17:07;;;;;;;;;2.75;2.75;;;;;19.80;57.91;101163.63;5061541;28;45302;-66
2022/06/07 04:19:34;;;;;;;;;2.50;2.00;;;;;19.78;58.01;101154.94;5061521;28;45248;-67
2022/06/07 04:22:01;;;;;;;;;3.00;2.00;;;;;19.79;58.35;101157.44;5061739;28;45634;-66
2022/06/07 04:24:26;;;;;;;;;2.00;2.00;;;;;19.78;58.57;101155.78;5061575;28;45350;-66
2022/06/07 04:26:52;;;;;;;;;3.00;1.75;;;;;19.78;58.66;101160.28;5061389;28;45491;-66
2022/06/07 04:29:17;;;;;;;;;2.00;2.00;;;;;19.75;58.63;101156.06;5060294;28;45311;-66
2022/06/07 04:31:43;;;;;;;;;2.25;2.25;;;;;19.75;58.48;101160.56;5061507;28;45314;-66
2022/06/07 04:34:08;;;;;;;;;3.00;1.50;;;;;19.72;58.58;101158.16;5061607;28;45516;-67
2022/06/07 04:36:35;;;;;;;;;3.25;2.00;;;;;19.68;58.42;101167.44;5061325;28;45551;-66
2022/06/07 04:39:04;;;;;;;;;4.00;2.00;;;;;19.63;58.68;101153.66;5061320;28;45306;-66
2022/06/07 04:41:29;;;;;;;;;2.75;2.75;;;;;19.60;58.96;101161.94;5061342;28;45290;-66
2022/06/07 04:43:56;;;;;;;;;3.00;1.25;;;;;19.55;59.42;101161.47;5061227;28;45555;-66
2022/06/07 04:46:22;;;;;;;;;2.50;1.00;;;;;19.49;59.39;101155.69;5061124;28;45391;-66
2022/06/07 04:48:49;;;;;;;;;2.25;2.00;;;;;19.46;59.26;101155.16;5059827;28;45268;-66
2022/06/07 04:51:18;;;;;;;;;1.50;1.50;;;;;19.43;59.99;101158.06;5061322;28;45366;-66
2022/06/07 04:53:44;;;;;;;;;3.75;2.00;;;;;19.39;59.86;101162.00;5061318;28;45185;-66
2022/06/07 04:56:15;;;;;;;;;3.00;2.75;;;;;19.34;59.80;101159.75;5060990;28;45314;-66
2022/06/07 04:58:41;;;;;;;;;2.00;1.25;;;;;19.30;60.35;101155.69;5061000;28;45367;-66
2022/06/07 05:01:11;;;;;;;;;3.00;2.50;;;;;19.26;60.54;101162.25;5064471;28;45291;-66
2022/06/07 05:03:37;;;;;;;;;4.00;2.75;;;;;19.24;60.49;101159.72;5061032;28;45497;-66
2022/06/07 05:06:03;;;;;;;;;3.00;2.75;;;;;19.21;60.72;101161.84;5060722;28;46267;-66
2022/06/07 05:08:29;;;;;;;;;1.50;1.50;;;;;19.14;61.18;101161.53;5061033;28;45610;-65
2022/06/07 05:10:54;;;;;;;;;3.00;3.00;;;;;19.11;61.68;101164.47;5060737;28;45327;-66
2022/06/07 05:13:21;;;;;;;;;2.25;2.25;;;;;19.08;61.92;101158.56;5060987;28;45349;-66
2022/06/07 05:15:56;;;;;;;;;5.00;3.00;;;;;19.05;61.63;101159.69;5060106;28;46706;-66
2022/06/07 05:18:21;;;;;;;;;2.25;2.25;;;;;19.03;62.32;101158.09;5060808;28;45255;-65
2022/06/07 05:20:47;;;;;;;;;3.00;3.00;;;;;19.02;62.43;101161.75;5060587;28;45215;-65
2022/06/07 05:23:12;;;;;;;;;3.00;3.00;;;;;18.99;62.86;101154.88;5060606;28;45590;-66
2022/06/07 05:25:38;;;;;;;;;3.25;2.75;;;;;19.00;62.65;101151.22;5060338;28;45229;-66
2022/06/07 05:28:04;;;;;;;;;3.50;3.00;;;;;18.98;62.98;101155.84;5060720;28;45253;-66
2022/06/07 05:30:31;;;;;;;;;4.25;3.00;;;;;18.98;63.11;101161.19;5061406;28;45177;-62
2022/06/07 05:32:57;;;;;;;;;2.50;2.50;;;;;18.98;63.39;101161.19;5068958;28;45339;-63
2022/06/07 05:35:22;;;;;;;;;6.00;2.00;;;;;18.98;63.17;101163.03;5070757;28;45682;-62
2022/06/07 05:37:48;;;;;;;;;3.25;3.25;;;;;18.98;63.45;101163.03;5070372;28;45307;-62
2022/06/07 05:40:13;;;;;;;;;2.50;2.00;;;;;18.97;63.97;101162.19;5068075;28;45423;-62
2022/06/07 05:42:39;;;;;;;;;2.00;2.00;;;;;18.99;64.28;101162.88;5069144;28;45338;-63
2022/06/07 05:45:05;;;;;;;;;6.50;3.00;;;;;19.00;64.25;101158.38;5070728;28;45333;-62
2022/06/07 05:47:30;;;;;;;;;2.50;2.25;;;;;19.02;64.12;101162.59;5060095;28;45494;-62
2022/06/07 05:49:56;;;;;;;;;3.50;2.25;;;;;19.01;64.10;101163.59;5060122;28;45248;-62
2022/06/07 05:52:22;;;;;;;;;2.00;2.00;;;;;19.02;64.26;101167.09;5070339;28;45585;-62
2022/06/07 05:54:47;;;;;;;;;3.00;3.00;;;;;19.02;64.30;101167.94;5061242;28;46011;-62
2022/06/07 05:57:13;;;;;;;;;6.00;3.50;;;;;19.06;64.40;101168.53;5060082;28;45263;-62
2022/06/07 05:59:39;;;;;;;;;3.25;3.00;;;;;19.07;64.22;101171.06;5064982;28;45177;-62
2022/06/07 06:02:05;;;;;;;;;2.25;2.25;;;;;19.09;64.31;101171.78;5069528;28;45260;-62
2022/06/07 06:04:30;;;;;;;;;2.00;2.00;;;;;19.07;64.80;101178.22;5072218;28;45384;-62
2022/06/07 06:06:57;;;;;;;;;2.00;2.00;;;;;19.05;64.53;101178.38;5060052;28;45245;-62
2022/06/07 06:12:07;;;;;;;;;3.00;2.00;;;;;19.05;64.97;101178.38;5060078;28;45261;-61
2022/06/07 06:14:33;;;;;;;;;3.50;2.00;;;;;19.06;64.85;101176.53;5071090;28;45356;-62
2022/06/07 06:16:59;;;;;;;;;3.75;2.00;;;;;19.06;64.65;101187.22;5059657;28;45318;-61
2022/06/07 06:19:24;;;;;;;;;3.00;2.75;;;;;18.99;64.82;101183.41;5059847;28;45476;-62
2022/06/07 06:21:50;;;;;;;;;1.75;1.75;;;;;18.91;65.12;101182.25;5059932;28;45272;-62
2022/06/07 06:24:17;;;;;;;;;2.00;2.00;;;;;18.92;64.99;101180.41;5059591;28;45383;-61
2022/06/07 06:26:43;;;;;;;;;0.00;0.00;;;;;18.94;65.27;101181.13;5060794;28;45233;-61
2022/06/07 06:29:10;;;;;;;;;2.25;2.00;;;;;18.98;65.60;101187.06;5063144;28;45220;-61
2022/06/07 06:31:37;;;;;;;;;3.00;3.00;;;;;19.02;65.60;101183.13;5063004;28;45207;-61
2022/06/07 06:34:02;;;;;;;;;2.00;2.00;;;;;19.04;65.40;101194.50;5062887;28;45350;-61
2022/06/07 06:36:30;;;;;;;;;2.00;2.00;;;;;19.06;65.39;101192.56;5063047;28;45314;-59
2022/06/07 06:38:56;;;;;;;;;2.75;2.75;;;;;19.09;65.73;101193.13;5063146;28;45331;-59
2022/06/07 06:41:27;;;;;;;;;2.00;2.00;;;;;19.11;65.38;101198.31;5063137;28;45309;-59
2022/06/07 06:43:54;;;;;;;;;1.75;1.75;;;;;19.12;65.75;101198.22;5062888;28;46186;-59
2022/06/07 06:46:26;;;;;;;;;2.50;2.50;;;;;19.11;65.20;101195.66;5062705;28;45512;-61
2022/06/07 06:48:52;;;;;;;;;1.25;1.25;;;;;19.12;65.40;101200.91;5062790;28;45335;-59
2022/06/07 06:51:21;;;;;;;;;2.00;2.00;;;;;19.10;65.26;101192.16;5067022;28;45532;-61
2022/06/07 06:53:47;;;;;;;;;3.00;2.50;;;;;19.11;65.79;101198.31;5071039;28;45278;-62
2022/06/07 06:56:15;;;;;;;;;2.00;2.00;;;;;19.08;65.91;101195.94;5071581;27;45202;-62
2022/06/07 06:58:41;;;;;;;;;2.00;2.00;;;;;19.10;65.72;101197.47;5072840;28;45318;-61
2022/06/07 07:01:10;;;;;;;;;4.00;2.50;;;;;19.14;65.59;101200.75;5072365;28;45548;-62
2022/06/07 07:03:38;;;;;;;;;2.00;1.75;;;;;19.15;65.44;101205.94;5073023;28;45337;-61
2022/06/07 07:06:06;;;;;;;;;3.00;3.00;;;;;19.17;65.62;101212.00;5069671;28;45257;-62
2022/06/07 07:08:32;;;;;;;;;3.25;2.00;;;;;19.21;65.86;101207.25;5072534;28;45503;-62
2022/06/07 07:11:05;;;;;;;;;2.00;2.00;;;;;19.21;66.16;101213.44;5069302;28;45580;-62
2022/06/07 07:13:30;;;;;;;;;0.75;0.75;;;;;19.24;66.12;101209.63;5073104;28;46432;-62
2022/06/07 07:15:57;;;;;;;;;1.00;1.00;;;;;19.27;65.42;101219.19;5072490;28;45291;-62
2022/06/07 07:18:22;;;;;;;;;0.50;0.50;;;;;19.27;65.50;101216.53;5072201;28;45344;-62
2022/06/07 07:20:48;;;;;;;;;3.00;1.00;;;;;19.28;65.35;101215.56;5071007;28;45430;-62
2022/06/07 07:23:13;;;;;;;;;1.75;1.00;;;;;19.29;65.81;101214.59;5071158;28;46045;-62
2022/06/07 07:25:39;;;;;;;;;1.75;1.75;;;;;19.30;65.39;101209.09;5072728;28;45364;-62
2022/06/07 07:28:04;;;;;;;;;1.00;1.00;;;;;19.32;65.67;101217.81;5066988;28;45354;-62
2022/06/07 07:30:30;;;;;;;;;1.75;0.75;;;;;19.38;65.26;101227.97;5073084;28;45323;-62
2022/06/07 07:32:56;;;;;;;;;1.00;1.00;;;;;19.42;65.51;101223.19;5050471;28;45380;-62
2022/06/07 07:35:23;;;;;;;;;0.00;0.00;;;;;19.45;65.41;101220.25;5067688;28;45352;-61
2022/06/07 07:37:48;;;;;;;;;1.00;0.00;;;;;19.50;64.96;101226.00;5072211;28;45422;-62
2022/06/07 07:40:14;;;;;;;;;0.00;0.00;;;;;19.55;64.95;101226.47;5072436;28;45332;-62
2022/06/07 07:42:41;;;;;;;;;0.00;0.00;;;;;19.57;64.71;101218.34;5071081;28;46170;-63
2022/06/07 07:45:08;;;;;;;;;1.00;1.00;;;;;19.59;64.79;101219.91;5069268;28;45497;-62
2022/06/07 07:47:33;;;;;;;;;0.50;0.25;;;;;19.63;65.14;101223.13;5070566;28;45447;-60
2022/06/07 07:49:59;;;;;;;;;1.00;1.00;;;;;19.67;64.83;101228.09;5073525;28;45462;-60
2022/06/07 07:52:25;;;;;;;;;0.50;0.00;;;;;19.69;64.82;101223.44;5071039;28;45897;-61
2022/06/07 07:54:51;;;;;;;;;1.75;0.00;;;;;19.69;64.28;101228.78;5070804;28;45454;-61
2022/06/07 07:57:16;;;;;;;;;1.75;1.00;;;;;19.68;64.41;101231.59;5070934;28;45460;-61
2022/06/07 07:59:42;;;;;;;;;0.00;0.00;;;;;19.71;64.18;101228.63;5070245;28;45320;-62
2022/06/07 08:02:16;;;;;;;;;2.25;1.00;;;;;19.78;64.24;101225.28;5071073;28;45176;-61
2022/06/07 08:04:41;;;;;;;;;2.00;0.00;;;;;19.85;64.14;101230.91;5065929;28;45289;-62
2022/06/07 08:07:07;;;;;;;;;1.00;1.00;;;;;19.94;63.76;101226.56;5071138;28;45363;-64
2022/06/07 08:09:33;;;;;;;;;0.00;0.00;;;;;20.03;63.91;101229.22;5070726;28;45385;-63
2022/06/07 08:11:59;;;;;;;;;2.00;0.75;;;;;20.13;63.88;101223.03;5069469;28;45927;-60
2022/06/07 08:14:25;;;;;;;;;0.75;0.75;;;;;20.17;63.66;101227.13;5073855;28;45444;-61
2022/06/07 08:16:51;;;;;;;;;1.00;1.00;;;;;20.22;63.58;101224.84;5071315;28;45294;-63
2022/06/07 08:19:18;;;;;;;;;0.00;0.00;;;;;20.24;63.45;101223.75;5072119;28;45384;-63
2022/06/07 08:21:44;;;;;;;;;0.75;0.25;;;;;20.29;63.12;101223.31;5067628;28;45557;-62
2022/06/07 08:24:09;;;;;;;;;0.00;0.00;;;;;20.34;63.16;101227.25;5068808;28;45465;-62
2022/06/07 08:26:36;;;;;;;;;1.00;1.00;;;;;20.33;62.93;101224.72;5069537;28;45465;-61
2022/06/07 08:29:02;;;;;;;;;1.00;1.00;;;;;20.32;63.14;101225.72;5072305;28;45926;-62
2022/06/07 08:31:30;;;;;;;;;0.00;0.00;;;;;20.35;62.94;101236.13;5060065;28;45692;-62
2022/06/07 08:39:25;;;;;;;;;3.00;1.75;;;;;20.42;62.51;101223.03;5059254;28;45364;-62
2022/06/07 08:41:57;;;;;;;;;0.75;0.75;;;;;20.50;62.56;101232.06;5056988;28;45599;-62
2022/06/07 08:44:35;;;;;;;;;2.75;1.00;;;;;20.52;62.31;101230.06;5058536;28;45710;-62
2022/06/07 08:47:17;;;;;;;;;2.00;0.25;;;;;20.58;62.03;101228.66;5058980;28;45496;-62
2022/06/07 08:49:43;;;;;;;;;2.00;0.50;;;;;20.58;61.81;101224.16;5060318;28;45700;-62
2022/06/07 08:52:39;;;;;;;;;2.00;0.00;;;;;20.56;61.95;101217.28;5061296;28;46007;-62
2022/06/07 08:55:41;;;;;;;;;0.25;0.25;;;;;20.53;61.69;101217.53;5059835;28;45157;-62
2022/06/07 08:58:49;;;;;;;;;1.25;0.50;;;;;20.55;61.71;101213.75;5061228;28;45228;-62
2022/06/07 09:01:32;;;;;;;;;2.00;1.00;;;;;20.62;61.58;101216.69;5062680;28;45288;-62
2022/06/07 09:04:16;;;;;;;;;2.00;2.00;;;;;20.71;61.47;101209.63;5060964;28;46056;-62
2022/06/07 09:06:50;;;;;;;;;0.50;0.50;;;;;20.78;61.23;101208.91;5061093;28;45185;-62
2022/06/07 09:09:19;;;;;;;;;1.00;1.00;;;;;20.83;61.27;101211.13;5061049;28;45330;-62
2022/06/07 09:12:09;;;;;;;;;1.50;1.50;;;;;20.85;61.33;101203.78;5060910;28;45254;-62
2022/06/07 09:14:47;;;;;;;;;2.75;2.25;;;;;20.92;61.45;101202.22;5060656;28;45292;-62
2022/06/07 09:17:21;;;;;;;;;1.25;1.25;;;;;20.98;61.13;101212.34;5060351;28;45224;-62
2022/06/07 09:19:49;;;;;;;;;4.00;1.25;;;;;20.97;61.11;101212.50;5060761;28;45455;-62
2022/06/07 09:22:40;;;;;;;;;2.00;2.00;;;;;20.95;60.78;101211.81;5060656;28;45250;-62
2022/06/07 09:25:14;;;;;;;;;2.00;1.00;;;;;20.94;60.84;101213.66;5060387;28;46202;-62
2022/06/07 09:27:39;;;;;;;;;1.00;1.00;;;;;20.93;60.69;101214.59;5060617;28;45339;-62
2022/06/07 09:30:28;;;;;;;;;2.25;1.00;;;;;20.95;60.61;101222.53;5060731;28;45307;-62
2022/06/07 09:32:53;;;;;;;;;1.00;1.00;;;;;20.94;60.62;101207.44;5060852;28;45426;-62
2022/06/07 09:35:24;;;;;;;;;4.75;1.75;;;;;20.92;60.15;101219.13;5060101;28;46016;-62
2022/06/07 09:38:01;;;;;;;;;0.00;0.00;;;;;20.89;60.33;101214.06;5060707;28;45469;-62
2022/06/07 09:40:34;;;;;;;;;0.00;0.00;;;;;20.87;60.20;101224.09;5060310;28;45328;-62
2022/06/07 09:43:05;;;;;;;;;3.00;1.00;;;;;20.97;60.33;101215.19;5060429;28;45409;-61
2022/06/07 09:45:53;;;;;;;;;1.50;0.00;;;;;21.06;60.03;101219.66;5059896;28;45197;-62
2022/06/07 09:48:35;;;;;;;;;1.00;0.25;;;;;21.09;59.82;101222.03;5060112;28;45310;-62
2022/06/07 09:51:21;;;;;;;;;0.50;0.00;;;;;21.24;59.73;101211.66;5060689;28;45212;-62
2022/06/07 09:54:18;;;;;;;;;0.50;0.00;;;;;21.44;59.92;101218.66;5060788;28;45448;-62
2022/06/07 09:57:43;;;;;;;;;2.00;1.75;;;;;21.52;59.58;101213.38;5058105;28;45423;-62
2022/06/07 10:00:30;;;;;;;;;1.50;0.25;;;;;21.44;59.66;101221.34;5060694;28;45673;-61
2022/06/07 10:03:00;;;;;;;;;2.50;1.00;;;;;21.25;59.16;101210.66;5062960;28;45402;-62
2022/06/07 10:05:36;;;;;;;;;1.00;0.50;;;;;21.13;59.26;101208.19;5063645;28;45453;-62
2022/06/07 10:08:08;;;;;;;;;0.00;0.00;;;;;21.13;59.01;101200.16;5063531;28;45406;-62
2022/06/07 10:11:01;;;;;;;;;1.75;0.00;;;;;21.21;59.04;101202.09;5063364;28;45328;-62
2022/06/07 10:13:44;;;;;;;;;0.75;0.75;;;;;21.37;59.14;101205.00;5052874;28;45499;-62
2022/06/07 10:16:47;;;;;;;;;1.25;0.50;;;;;21.38;58.84;101206.69;5063424;28;45349;-62
2022/06/07 10:19:38;;;;;;;;;0.75;0.75;;;;;21.44;58.83;101202.56;5063286;28;45402;-62
2022/06/07 10:22:13;;;;;;;;;1.50;0.00;;;;;21.46;58.79;101198.75;5063713;28;45220;-62
2022/06/07 10:24:59;;;;;;;;;1.25;0.50;;;;;21.45;58.43;101197.06;5063407;28;45380;-62
2022/06/07 10:28:12;;;;;;;;;6.50;5.00;;;;;21.44;58.59;101191.84;5063245;28;45247;-62
2022/06/07 10:30:57;;;;;;;;;0.50;0.50;;;;;21.42;58.29;101196.53;5062664;28;45348;-62
2022/06/07 10:33:31;;;;;;;;;0.50;0.50;;;;;21.39;58.23;101192.28;5063340;28;45218;-62
2022/06/07 10:36:35;;;;;;;;;1.00;1.00;;;;;21.44;57.95;101190.00;5063454;28;45429;-62
2022/06/07 10:39:17;;;;;;;;;0.75;0.75;;;;;21.54;57.89;101195.31;5040838;28;45520;-62
2022/06/07 10:42:14;;;;;;;;;0.00;0.00;;;;;21.79;57.58;101187.50;5060673;28;45999;-62
2022/06/07 10:44:49;;;;;;;;;0.25;0.25;;;;;22.02;57.63;101188.75;5062984;28;45383;-62
2022/06/07 10:47:34;;;;;;;;;0.00;0.00;;;;;22.20;57.05;101170.00;5062939;28;45335;-62
2022/06/07 10:50:11;;;;;;;;;0.00;0.00;;;;;22.34;56.91;101180.13;5062922;28;45227;-62
2022/06/07 10:52:59;;;;;;;;;0.50;0.50;;;;;22.40;56.84;101179.53;5062809;28;45236;-62
2022/06/07 10:55:45;;;;;;;;;0.00;0.00;;;;;22.45;56.83;101173.69;5062681;28;45256;-62
2022/06/07 10:58:32;;;;;;;;;0.00;0.00;;;;;22.46;56.16;101186.97;5062717;28;45344;-62
2022/06/07 11:01:07;;;;;;;;;0.75;0.00;;;;;22.52;56.26;101174.75;5066329;28;45341;-62
2022/06/07 11:03:39;;;;;;;;;0.75;0.00;;;;;22.44;55.66;101182.75;5062491;28;45264;-62
2022/06/07 11:09:36;;;;;;;;;0.00;0.00;;;;;22.20;55.51;101188.78;5062599;28;45309;-62
2022/06/07 11:12:13;;;;;;;;;0.00;0.00;;;;;22.10;55.09;101183.47;5062122;28;45306;-62
2022/06/07 11:15:12;;;;;;;;;0.50;0.00;;;;;22.03;55.22;101183.22;5062568;28;45241;-62
2022/06/07 11:18:04;;;;;;;;;0.00;0.00;;;;;22.16;54.78;101188.22;5062251;28;45251;-62
2022/06/07 11:20:32;;;;;;;;;0.50;0.50;;;;;22.26;55.05;101180.91;5059444;28;45456;-62
2022/06/07 11:23:02;;;;;;;;;0.75;0.75;;;;;22.27;54.60;101179.91;5063121;28;45306;-62
2022/06/07 11:25:33;;;;;;;;;0.25;0.25;;;;;22.22;54.59;101182.25;5062204;28;45986;-62
2022/06/07 11:28:12;;;;;;;;;0.75;0.00;;;;;22.24;54.50;101171.34;5062369;28;45322;-63
2022/06/07 11:30:37;;;;;;;;;0.00;0.00;;;;;22.36;54.54;101177.31;5062424;28;45193;-62
2022/06/07 11:33:29;;;;;;;;;0.25;0.25;;;;;22.60;54.54;101182.03;5062461;28;45427;-62
2022/06/07 11:36:12;;;;;;;;;0.50;0.50;;;;;22.75;54.24;101172.34;5062351;28;46473;-62
2022/06/07 11:39:28;;;;;;;;;0.00;0.00;;;;;22.72;54.08;101178.03;5061985;28;45277;-62
2022/06/07 11:41:57;;;;;;;;;0.75;0.25;;;;;22.58;53.88;101172.25;5052891;28;45514;-62
2022/06/07 11:44:32;;;;;;;;;1.50;0.25;;;;;22.50;53.73;101182.09;5062598;28;45241;-62
2022/06/07 11:47:06;;;;;;;;;0.50;0.50;;;;;22.41;53.65;101185.72;5061756;28;45305;-62
2022/06/07 11:49:37;;;;;;;;;0.00;0.00;;;;;22.36;53.49;101177.31;5062264;28;45314;-62
2022/06/07 11:52:12;;;;;;;;;0.00;0.00;;;;;22.35;53.88;101173.78;5062087;28;45322;-62
2022/06/07 11:54:51;;;;;;;;;0.00;0.00;;;;;22.45;53.63;101165.63;5062489;28;45488;-62
2022/06/07 11:57:17;;;;;;;;;1.00;1.00;;;;;22.45;53.65;101165.63;5061787;28;45317;-62
2022/06/07 11:59:46;;;;;;;;;0.00;0.00;;;;;22.50;53.45;101164.16;5065302;28;45220;-62
2022/06/07 12:02:21;;;;;;;;;2.50;1.00;;;;;22.66;53.95;101170.63;5061947;28;45466;-62